Time;durP1;ratioP1;P1;durP2;ratioP2;P2;SDS_P1;SDS_P2;PMS_P1;PMS_P2;Temp;Humidity;BMP_temperature;BMP_pressure;BME280_temperature;BME280_humidity;BME280_pressure;Samples;Min_cycle;Max_cycle;Signal;HPM_P1;HPM_P2
2022/12/18 00:00:40;;;;;;;80.25;27.65;;;;;;;-3.63;100.00;102665.16;5047993;28;20098;-69
2022/12/18 00:03:05;;;;;;;84.03;25.85;;;;;;;-3.66;100.00;102654.53;5041142;28;20480;-70
2022/12/18 00:05:31;;;;;;;80.65;25.75;;;;;;;-3.67;100.00;102647.56;5031611;28;20052;-68
2022/12/18 00:07:56;;;;;;;78.78;25.30;;;;;;;-3.67;100.00;102655.28;5048974;28;20029;-69
2022/12/18 00:10:21;;;;;;;84.82;28.23;;;;;;;-3.68;100.00;102645.75;5050285;28;20028;-68
2022/12/18 00:12:47;;;;;;;80.05;25.73;;;;;;;-3.68;100.00;102643.19;5050521;28;20040;-68
2022/12/18 00:15:12;;;;;;;83.43;27.05;;;;;;;-3.69;100.00;102649.06;5040882;28;20036;-67
2022/12/18 00:17:37;;;;;;;86.60;27.17;;;;;;;-3.75;100.00;102650.25;5050180;28;20139;-69
2022/12/18 00:20:03;;;;;;;78.63;25.08;;;;;;;-3.75;100.00;102642.53;5050602;28;20025;-69
2022/12/18 00:22:28;;;;;;;66.18;25.08;;;;;;;-3.71;100.00;102640.28;5050317;28;20021;-68
2022/12/18 00:24:54;;;;;;;78.00;25.30;;;;;;;-3.73;100.00;102642.69;5047252;28;20353;-69
2022/12/18 00:27:19;;;;;;;68.70;24.90;;;;;;;-3.72;100.00;102649.66;5031681;28;20479;-69
2022/12/18 00:29:44;;;;;;;90.28;25.50;;;;;;;-3.73;100.00;102642.69;5045570;28;20021;-68
2022/12/18 00:32:10;;;;;;;89.20;27.35;;;;;;;-3.75;100.00;102639.06;5059145;28;20033;-68
2022/12/18 00:34:35;;;;;;;84.25;24.52;;;;;;;-3.73;100.00;102630.75;5052902;28;20024;-68
2022/12/18 00:37:00;;;;;;;86.35;26.85;;;;;;;-3.77;100.00;102631.19;5054034;28;20060;-69
2022/12/18 00:39:26;;;;;;;90.75;25.80;;;;;;;-3.80;100.00;102635.09;5054143;28;20041;-69
2022/12/18 00:44:35;;;;;;;83.25;26.20;;;;;;;-3.76;100.00;102633.03;5053832;28;20492;-69
2022/12/18 00:47:00;;;;;;;75.57;25.08;;;;;;;-3.75;100.00;102629.66;5053759;28;20109;-68
2022/12/18 00:49:25;;;;;;;91.78;29.17;;;;;;;-3.75;100.00;102634.81;5054229;28;20061;-68
2022/12/18 00:51:51;;;;;;;108.18;28.63;;;;;;;-3.76;100.00;102643.31;5053442;28;20028;-68
2022/12/18 00:54:17;;;;;;;93.18;27.92;;;;;;;-3.70;100.00;102644.66;5053865;28;20493;-69
2022/12/18 00:56:42;;;;;;;101.28;30.98;;;;;;;-3.70;100.00;102648.16;5054262;28;20029;-69
2022/12/18 00:59:08;;;;;;;99.72;27.90;;;;;;;-3.74;100.00;102640.88;5051363;28;20049;-70
2022/12/18 01:01:33;;;;;;;109.85;30.23;;;;;;;-3.77;100.00;102641.47;5049142;28;20025;-69
2022/12/18 01:04:01;;;;;;;84.25;25.40;;;;;;;-3.77;100.00;102646.63;5041700;28;20036;-68
2022/12/18 01:06:26;;;;;;;90.20;26.50;;;;;;;-3.82;100.00;102650.38;5053365;28;20099;-69
2022/12/18 01:08:52;;;;;;;90.65;26.10;;;;;;;-3.84;100.00;102649.28;5047259;28;20476;-69
2022/12/18 01:11:19;;;;;;;90.70;27.98;;;;;;;-3.87;100.00;102658.38;5050284;28;20049;-69
2022/12/18 01:13:45;;;;;;;85.35;27.33;;;;;;;-3.89;100.00;102658.22;5050890;28;20055;-69
2022/12/18 01:16:12;;;;;;;98.43;26.48;;;;;;;-3.92;100.00;102661.38;5039368;28;20400;-69
2022/12/18 01:18:38;;;;;;;85.30;26.17;;;;;;;-3.95;100.00;102660.13;5053045;28;20036;-67
2022/12/18 01:21:11;;;;;;;84.75;25.08;;;;;;;-3.93;100.00;102663.78;5053716;28;20384;-69
2022/12/18 01:23:37;;;;;;;;;;;;;;;-3.91;100.00;102662.28;5042786;28;20048;-69
2022/12/18 01:26:07;;;;;;;91.60;25.25;;;;;;;-3.92;100.00;102666.50;5047510;28;19912;-69
2022/12/18 01:28:33;;;;;;;102.53;28.65;;;;;;;-3.92;100.00;102670.72;5053247;28;20032;-69
2022/12/18 01:31:10;;;;;;;83.13;27.45;;;;;;;-3.92;100.00;102666.50;5054142;28;20029;-68
2022/12/18 01:33:35;;;;;;;76.63;27.13;;;;;;;-3.93;100.00;102671.50;5046276;28;20071;-68
2022/12/18 01:36:00;;;;;;;86.65;27.38;;;;;;;-4.01;100.00;102670.69;5052841;28;20056;-68
2022/12/18 01:38:26;;;;;;;85.63;25.77;;;;;;;-4.01;100.00;102664.66;5042238;28;20061;-70
2022/12/18 01:41:00;;;;;;;89.85;25.38;;;;;;;-4.02;100.00;102667.97;5048520;28;20439;-68
2022/12/18 01:43:46;;;;;;;97.28;26.30;;;;;;;-4.04;100.00;102669.44;5046201;28;20025;-69
2022/12/18 01:46:11;;;;;;;78.22;26.98;;;;;;;-4.05;100.00;102668.56;5037724;28;20033;-69
2022/12/18 01:48:38;;;;;;;86.05;25.48;;;;;;;-4.08;100.00;102673.38;5043061;28;20032;-69
2022/12/18 01:51:05;;;;;;;79.57;25.13;;;;;;;-4.11;100.00;102679.09;5053496;28;20036;-68
2022/12/18 01:53:31;;;;;;;101.70;26.40;;;;;;;-4.14;100.00;102688.16;5053115;28;20032;-68
2022/12/18 01:55:58;;;;;;;97.45;26.05;;;;;;;-4.16;100.00;102687.09;5065789;28;20028;-68
2022/12/18 01:58:35;;;;;;;116.82;27.17;;;;;;;-4.18;100.00;102686.91;5062710;28;20037;-68
2022/12/18 02:01:00;;;;;;;79.07;26.50;;;;;;;-4.14;100.00;102691.63;5051757;28;20119;-68
2022/12/18 02:03:26;;;;;;;80.15;25.63;;;;;;;-4.16;100.00;102697.38;5037972;28;20057;-67
2022/12/18 02:05:57;;;;;;;91.38;25.88;;;;;;;-4.23;100.00;102698.38;5041526;28;20025;-68
2022/12/18 02:08:28;;;;;;;86.22;25.50;;;;;;;-4.16;100.00;102695.69;5050992;28;20047;-69
2022/12/18 02:10:56;;;;;;;69.18;24.10;;;;;;;-4.14;100.00;102691.63;5052698;28;20037;-68
2022/12/18 02:13:31;;;;;;;90.85;24.05;;;;;;;-4.24;100.00;102686.28;5051477;28;20064;-68
2022/12/18 02:16:33;;;;;;;83.88;22.25;;;;;;;-4.27;100.00;102685.94;5052200;28;20025;-68
2022/12/18 02:19:06;;;;;;;93.35;24.35;;;;;;;-4.30;100.00;102690.75;5051748;28;20405;-68
2022/12/18 02:21:43;;;;;;;79.43;22.33;;;;;;;-4.33;100.00;102690.44;5053032;28;20036;-69
2022/12/18 02:24:27;;;;;;;73.13;24.13;;;;;;;-4.31;100.00;102689.84;5040739;28;20485;-68
2022/12/18 02:26:58;;;;;;;111.47;24.55;;;;;;;-4.29;100.00;102684.88;5053014;28;20081;-69
2022/12/18 02:29:53;;;;;;;81.60;24.35;;;;;;;-4.32;100.00;102689.69;5039399;28;20029;-68
2022/12/18 02:32:25;;;;;;;58.63;22.08;;;;;;;-4.33;100.00;102690.44;5040975;28;20049;-67
2022/12/18 02:34:54;;;;;;;104.25;26.60;;;;;;;-4.35;100.00;102691.91;5035788;28;20037;-68
2022/12/18 02:37:20;;;;;;;119.72;21.27;;;;;;;-4.37;100.00;102693.41;5047058;28;20461;-69
2022/12/18 02:39:48;;;;;;;121.25;26.98;;;;;;;-4.42;100.00;102675.84;5032780;28;20137;-68
2022/12/18 02:42:14;;;;;;;75.20;22.08;;;;;;;-4.46;100.00;102671.13;5032863;28;20049;-68
2022/12/18 02:44:51;;;;;;;58.80;20.23;;;;;;;-4.50;100.00;102662.91;5051312;28;20025;-67
2022/12/18 02:47:22;;;;;;;62.60;21.85;;;;;;;-4.50;100.00;102655.22;5051148;28;20040;-68
2022/12/18 02:49:53;;;;;;;62.10;21.05;;;;;;;-4.53;100.00;102648.13;5035079;28;20044;-68
2022/12/18 02:52:45;;;;;;;72.88;21.70;;;;;;;-4.54;100.00;102651.44;5032377;28;20078;-68
2022/12/18 02:55:39;;;;;;;77.30;23.15;;;;;;;-4.52;100.00;102647.34;5038770;28;20037;-68
2022/12/18 02:58:15;;;;;;;74.65;22.30;;;;;;;-4.54;100.00;102638.59;5036077;28;20032;-69
2022/12/18 03:00:48;;;;;;;69.20;21.95;;;;;;;-4.58;100.00;102636.44;5051148;28;20123;-67
2022/12/18 03:03:19;;;;;;;92.07;22.03;;;;;;;-4.59;100.00;102640.66;5039902;28;20067;-67
2022/12/18 03:05:51;;;;;;;72.10;22.08;;;;;;;-4.62;100.00;102639.44;5051977;28;20408;-67
2022/12/18 03:08:26;;;;;;;69.75;23.42;;;;;;;-4.68;100.00;102639.69;5051912;28;20033;-68
2022/12/18 03:11:13;;;;;;;63.58;21.15;;;;;;;-4.65;100.00;102624.59;5040544;28;20375;-68
2022/12/18 03:13:48;;;;;;;68.90;24.05;;;;;;;-4.65;100.00;102628.81;5034748;28;20033;-68
2022/12/18 03:16:21;;;;;;;77.47;25.92;;;;;;;-4.65;100.00;102618.53;5040288;28;20083;-67
2022/12/18 03:18:55;;;;;;;85.60;23.13;;;;;;;-4.68;100.00;102620.78;5043579;28;20029;-67
2022/12/18 03:21:26;;;;;;;73.82;21.17;;;;;;;-4.66;100.00;102622.78;5051442;28;20291;-67
2022/12/18 03:23:53;;;;;;;71.28;23.10;;;;;;;-4.74;100.00;102619.38;5051274;28;20083;-68
2022/12/18 03:26:23;;;;;;;60.38;20.90;;;;;;;-4.71;100.00;102623.03;5052984;28;20472;-67
2022/12/18 03:28:56;;;;;;;76.78;22.20;;;;;;;-4.79;100.00;102622.19;5058724;28;20479;-67
2022/12/18 03:31:23;;;;;;;74.53;22.50;;;;;;;-4.78;100.00;102626.59;5051064;28;20029;-67
2022/12/18 03:34:00;;;;;;;83.70;26.65;;;;;;;-4.75;100.00;102621.78;5049906;28;20468;-66
2022/12/18 03:36:26;;;;;;;79.07;21.48;;;;;;;-4.76;100.00;102625.09;5050990;28;20048;-68
2022/12/18 03:38:52;;;;;;;69.50;21.63;;;;;;;-4.78;100.00;102617.22;5051352;28;20025;-67
2022/12/18 03:41:43;;;;;;;71.88;23.23;;;;;;;-4.81;100.00;102616.91;5056288;28;20387;-67
2022/12/18 03:44:13;;;;;;;78.18;23.88;;;;;;;-4.83;100.00;102618.41;5055651;28;20377;-68
2022/12/18 03:46:38;;;;;;;89.60;24.85;;;;;;;-4.84;100.00;102608.88;5036610;28;20029;-68
2022/12/18 03:49:20;;;;;;;75.32;24.63;;;;;;;-4.81;100.00;102611.78;5050175;28;20090;-68
2022/12/18 03:51:54;;;;;;;73.70;23.52;;;;;;;-4.83;100.00;102609.78;5067167;28;20025;-68
2022/12/18 03:54:20;;;;;;;64.93;22.65;;;;;;;-4.95;100.00;102606.81;5050340;28;20082;-67
2022/12/18 03:56:50;;;;;;;74.15;21.83;;;;;;;-5.04;100.00;102595.56;5048418;28;20568;-66
2022/12/18 03:59:18;;;;;;;76.57;23.17;;;;;;;-5.04;100.00;102603.28;5051169;28;20603;-68
2022/12/18 04:01:47;;;;;;;63.75;22.83;;;;;;;-5.10;100.00;102607.00;5051087;28;20074;-67
2022/12/18 04:04:16;;;;;;;69.93;21.35;;;;;;;-5.14;100.00;102597.16;5041907;28;20392;-68
2022/12/18 04:06:43;;;;;;;69.63;22.40;;;;;;;-5.15;100.00;102605.59;5037882;28;20036;-68
2022/12/18 04:09:09;;;;;;;69.93;20.80;;;;;;;-5.23;100.00;102608.97;5053096;28;20025;-68
2022/12/18 04:11:34;;;;;;;59.92;21.23;;;;;;;-5.22;100.00;102610.81;5054767;28;20374;-68
2022/12/18 04:14:00;;;;;;;57.08;21.45;;;;;;;-5.23;100.00;102610.66;5049065;28;20108;-68
2022/12/18 04:16:26;;;;;;;72.85;21.48;;;;;;;-5.27;100.00;102605.16;5043906;28;20025;-68
2022/12/18 04:18:53;;;;;;;59.28;22.60;;;;;;;-5.23;100.00;102614.09;5054861;28;20056;-68
2022/12/18 04:21:19;;;;;;;61.90;22.48;;;;;;;-5.28;100.00;102616.19;5043201;28;20525;-67
2022/12/18 04:23:44;;;;;;;54.50;22.48;;;;;;;-5.30;100.00;102619.31;5052311;28;20112;-68
2022/12/18 04:26:10;;;;;;;67.70;21.13;;;;;;;-5.34;100.00;102619.75;5050498;28;20021;-67
2022/12/18 04:28:35;;;;;;;59.25;21.23;;;;;;;-5.32;100.00;102618.22;5042902;28;20029;-67
2022/12/18 04:31:02;;;;;;;69.78;22.38;;;;;;;-5.29;100.00;102627.19;5054991;28;20195;-67
2022/12/18 04:33:27;;;;;;;79.43;23.58;;;;;;;-5.28;100.00;102623.88;5051853;28;20025;-66
2022/12/18 04:35:53;;;;;;;68.78;23.20;;;;;;;-5.29;100.00;102624.63;5054253;28;20032;-67
2022/12/18 04:38:18;;;;;;;66.90;24.35;;;;;;;-5.29;100.00;102618.56;5054278;28;20113;-67
2022/12/18 04:40:43;;;;;;;69.97;24.45;;;;;;;-5.31;100.00;102626.09;5055126;28;20112;-67
2022/12/18 04:43:09;;;;;;;71.50;23.08;;;;;;;-5.35;100.00;102628.16;5053687;28;20545;-67
2022/12/18 04:45:34;;;;;;;58.00;22.25;;;;;;;-5.34;100.00;102630.00;5053347;28;20108;-67
2022/12/18 04:48:01;;;;;;;72.18;21.73;;;;;;;-5.34;100.00;102632.56;5037133;28;20021;-67
2022/12/18 04:50:27;;;;;;;56.92;20.80;;;;;;;-5.36;100.00;102627.25;5046428;28;20067;-66
2022/12/18 04:52:52;;;;;;;65.30;21.75;;;;;;;-5.38;100.00;102627.84;5054550;28;20056;-67
2022/12/18 04:55:18;;;;;;;59.38;22.95;;;;;;;-5.35;100.00;102623.03;5054533;28;20021;-67
2022/12/18 04:57:43;;;;;;;62.60;21.95;;;;;;;-5.34;100.00;102624.88;5053978;28;20033;-66
2022/12/18 05:00:09;;;;;;;61.80;21.77;;;;;;;-5.37;100.00;102616.81;5053368;28;20374;-67
2022/12/18 05:02:34;;;;;;;60.58;22.58;;;;;;;-5.39;100.00;102610.63;5053751;28;20029;-66
2022/12/18 05:05:00;;;;;;;65.55;22.35;;;;;;;-5.38;100.00;102617.59;5056868;28;20028;-68
2022/12/18 05:07:25;;;;;;;70.65;21.95;;;;;;;-5.45;100.00;102611.75;5074353;28;20036;-67
2022/12/18 05:09:50;;;;;;;55.20;18.58;;;;;;;-5.49;100.00;102617.31;5057130;28;20029;-66
2022/12/18 05:12:16;;;;;;;56.50;22.33;;;;;;;-5.51;100.00;102621.34;5053983;28;20091;-66
2022/12/18 05:14:41;;;;;;;59.17;21.33;;;;;;;-5.52;100.00;102621.19;5053435;28;20067;-68
2022/12/18 05:17:06;;;;;;;48.70;19.35;;;;;;;-5.55;100.00;102624.31;5053298;28;20536;-66
2022/12/18 05:19:32;;;;;;;54.17;19.58;;;;;;;-5.55;100.00;102624.31;5052177;28;20108;-67
2022/12/18 05:21:57;;;;;;;63.88;20.88;;;;;;;-5.60;100.00;102620.34;5053512;28;20025;-67
2022/12/18 05:24:22;;;;;;;57.50;22.13;;;;;;;-5.57;100.00;102618.13;5052708;28;20017;-67
2022/12/18 05:26:48;;;;;;;49.78;20.77;;;;;;;-5.55;100.00;102618.28;5053158;28;20032;-67
2022/12/18 05:29:13;;;;;;;55.20;19.92;;;;;;;-5.62;100.00;102607.34;5050117;28;20469;-67
2022/12/18 05:31:39;;;;;;;55.30;19.70;;;;;;;-5.59;100.00;102614.47;5054631;28;20025;-66
2022/12/18 05:34:05;;;;;;;64.38;23.58;;;;;;;-5.65;100.00;102606.09;5044296;28;20033;-67
2022/12/18 05:36:30;;;;;;;64.60;21.95;;;;;;;-5.66;100.00;102606.84;5041018;28;20127;-67
2022/12/18 05:38:55;;;;;;;66.25;23.27;;;;;;;-5.65;100.00;102600.97;5052970;28;20488;-67
2022/12/18 05:41:21;;;;;;;68.07;22.75;;;;;;;-5.64;100.00;102603.72;5053131;28;20033;-67
2022/12/18 05:43:46;;;;;;;57.65;20.33;;;;;;;-5.65;100.00;102598.41;5048438;28;20022;-67
2022/12/18 05:46:14;;;;;;;61.78;21.20;;;;;;;-5.76;100.00;102590.44;5038292;28;20063;-66
2022/12/18 05:48:41;;;;;;;49.63;18.75;;;;;;;-5.87;100.00;102588.34;5044092;28;20029;-67
2022/12/18 05:51:10;;;;;;;56.65;19.83;;;;;;;-5.92;100.00;102590.38;5053369;28;20551;-68
2022/12/18 05:53:36;;;;;;;60.33;23.52;;;;;;;-5.93;100.00;102588.59;5046759;28;20032;-67
2022/12/18 05:56:06;;;;;;;51.60;20.35;;;;;;;-5.89;100.00;102594.94;5044487;28;20481;-67
2022/12/18 05:58:32;;;;;;;63.97;21.08;;;;;;;-5.91;100.00;102593.88;5046363;28;20033;-67
2022/12/18 06:01:12;;;;;;;55.05;20.58;;;;;;;-5.94;100.00;102596.09;5034970;28;20112;-66
2022/12/18 06:03:38;;;;;;;63.97;22.48;;;;;;;-5.90;100.00;102588.03;5052225;28;20024;-67
2022/12/18 06:06:03;;;;;;;62.08;22.63;;;;;;;-5.91;100.00;102578.50;5035790;28;20372;-65
2022/12/18 06:08:28;;;;;;;51.53;21.23;;;;;;;-5.90;100.00;102587.09;5033763;28;20489;-66
2022/12/18 06:10:54;;;;;;;52.15;22.08;;;;;;;-5.89;100.00;102587.25;5044387;28;20055;-67
2022/12/18 06:13:20;;;;;;;55.15;20.75;;;;;;;-5.87;100.00;102582.28;5050454;28;20109;-67
2022/12/18 06:15:46;;;;;;;53.88;21.67;;;;;;;-5.88;100.00;102571.16;5033045;28;20374;-66
2022/12/18 06:18:11;;;;;;;54.83;21.33;;;;;;;-5.83;100.00;102572.56;5037394;28;20028;-66
2022/12/18 06:20:39;;;;;;;54.28;21.70;;;;;;;-5.82;100.00;102565.78;5049107;28;20369;-67
2022/12/18 06:23:05;;;;;;;49.85;19.27;;;;;;;-5.81;100.00;102550.56;5062742;28;20477;-66
2022/12/18 06:25:30;;;;;;;54.90;21.15;;;;;;;-5.82;100.00;102559.03;5054580;28;20031;-66
2022/12/18 06:27:56;;;;;;;60.42;20.52;;;;;;;-5.80;100.00;102565.22;5069947;28;20024;-66
2022/12/18 06:30:22;;;;;;;41.88;20.25;;;;;;;-5.74;100.00;102562.41;5056926;28;20037;-66
2022/12/18 06:32:48;;;;;;;56.05;21.70;;;;;;;-5.81;100.00;102562.47;5050678;28;20037;-66
2022/12/18 06:35:14;;;;;;;51.28;19.90;;;;;;;-5.78;100.00;102556.03;5053553;28;20475;-66
2022/12/18 06:37:39;;;;;;;53.25;22.15;;;;;;;-5.80;100.00;102551.50;5056716;28;20109;-67
2022/12/18 06:40:05;;;;;;;47.53;18.88;;;;;;;-5.84;100.00;102550.22;5052325;28;20059;-66
2022/12/18 06:42:31;;;;;;;53.78;20.92;;;;;;;-5.80;100.00;102554.06;5052253;28;20043;-66
2022/12/18 06:44:57;;;;;;;60.60;21.58;;;;;;;-5.85;100.00;102540.72;5050943;28;20476;-66
2022/12/18 06:47:22;;;;;;;53.58;20.25;;;;;;;-5.87;100.00;102531.97;5052318;28;20029;-67
2022/12/18 06:49:47;;;;;;;50.83;20.90;;;;;;;-5.88;100.00;102535.25;5041267;28;20026;-66
2022/12/18 06:52:16;;;;;;;42.33;19.95;;;;;;;-5.89;100.00;102537.66;5036865;28;20031;-67
2022/12/18 06:54:41;;;;;;;49.70;20.45;;;;;;;-5.94;100.00;102534.56;5051679;28;20017;-67
2022/12/18 06:57:06;;;;;;;47.20;19.60;;;;;;;-5.95;100.00;102527.66;5052023;28;20033;-66
2022/12/18 06:59:32;;;;;;;47.50;17.58;;;;;;;-5.96;100.00;102520.69;5036615;28;20128;-68
2022/12/18 07:01:57;;;;;;;46.58;17.38;;;;;;;-5.94;100.00;102514.06;5055789;28;21064;-66
2022/12/18 07:04:27;;;;;;;38.95;17.13;;;;;;;-5.94;100.00;102515.00;5048581;28;20533;-67
2022/12/18 07:06:53;;;;;;;38.47;16.27;;;;;;;-5.91;100.00;102509.28;5038740;28;20358;-66
2022/12/18 07:09:18;;;;;;;41.85;14.93;;;;;;;-5.93;100.00;102521.00;5051589;28;20040;-66
2022/12/18 07:11:43;;;;;;;36.10;16.10;;;;;;;-5.93;100.00;102510.75;5051404;28;20029;-65
2022/12/18 07:14:09;;;;;;;41.13;16.63;;;;;;;-5.94;100.00;102507.31;5042938;28;20048;-66
2022/12/18 07:16:34;;;;;;;38.65;15.40;;;;;;;-5.95;100.00;102502.00;5032043;28;20021;-66
2022/12/18 07:18:59;;;;;;;39.90;15.93;;;;;;;-5.94;100.00;102488.44;5042227;28;20025;-66
2022/12/18 07:21:25;;;;;;;31.77;15.80;;;;;;;-5.96;100.00;102474.56;5050752;28;20025;-65
2022/12/18 07:23:50;;;;;;;36.15;14.68;;;;;;;-5.98;100.00;102471.88;5051619;28;20384;-66
2022/12/18 07:26:18;;;;;;;38.53;15.65;;;;;;;-5.98;100.00;102463.25;5047302;28;20033;-66
2022/12/18 07:28:43;;;;;;;33.08;15.10;;;;;;;-5.97;100.00;102454.78;5051782;28;20464;-66
2022/12/18 07:31:12;;;;;;;38.70;15.48;;;;;;;-5.98;100.00;102455.56;5051408;28;20135;-66
2022/12/18 07:33:38;;;;;;;41.17;16.58;;;;;;;-5.98;100.00;102450.44;5051526;28;20037;-67
2022/12/18 07:36:05;;;;;;;31.35;14.60;;;;;;;-5.97;100.00;102441.97;5051398;28;20487;-67
2022/12/18 07:38:32;;;;;;;33.92;14.30;;;;;;;-5.98;100.00;102442.75;5049665;28;20028;-66
2022/12/18 07:41:11;;;;;;;33.85;14.27;;;;;;;-5.98;100.00;102440.19;5044199;28;20365;-66
2022/12/18 07:43:38;;;;;;;29.55;13.93;;;;;;;-5.99;100.00;102448.63;5054555;28;20487;-66
2022/12/18 07:46:04;;;;;;;29.10;14.82;;;;;;;-5.98;100.00;102453.00;5051909;28;20024;-65
2022/12/18 07:48:30;;;;;;;43.00;14.30;;;;;;;-5.95;100.00;102459.34;5053570;28;20028;-66
2022/12/18 07:51:03;;;;;;;35.10;14.02;;;;;;;-5.95;100.00;102459.34;5053095;28;20021;-67
2022/12/18 07:53:29;;;;;;;29.88;14.35;;;;;;;-5.93;100.00;102464.63;5053979;28;20044;-65
2022/12/18 07:56:05;;;;;;;32.58;12.77;;;;;;;-5.92;100.00;102457.09;5052561;28;20469;-66
2022/12/18 07:58:31;;;;;;;36.58;13.55;;;;;;;-5.87;100.00;102459.25;5050065;28;20078;-66
2022/12/18 08:01:11;;;;;;;30.65;13.85;;;;;;;-5.89;100.00;102450.50;5048617;28;20485;-65
2022/12/18 08:03:37;;;;;;;31.17;13.38;;;;;;;-5.87;100.00;102459.25;5043763;28;20100;-65
2022/12/18 08:06:05;;;;;;;36.97;14.93;;;;;;;-5.86;100.00;102459.44;5048420;28;20028;-65
2022/12/18 08:08:30;;;;;;;31.15;13.45;;;;;;;-5.84;100.00;102463.06;5064322;28;20059;-66
2022/12/18 08:10:57;;;;;;;27.77;12.18;;;;;;;-5.84;100.00;102460.50;5070438;28;20037;-66
2022/12/18 08:13:22;;;;;;;31.92;14.52;;;;;;;-5.85;100.00;102444.97;5058691;28;20029;-65
2022/12/18 08:16:06;;;;;;;30.58;13.70;;;;;;;-5.82;100.00;102443.66;5068614;28;20036;-65
2022/12/18 08:18:36;;;;;;;25.42;12.90;;;;;;;-5.82;100.00;102441.09;5056604;28;20537;-76
2022/12/18 08:21:16;;;;;;;29.17;12.57;;;;;;;-5.80;100.00;102431.91;5055033;28;20029;-66
2022/12/18 08:23:42;;;;;;;27.55;13.27;;;;;;;-5.82;100.00;102435.97;5065671;28;20051;-66
2022/12/18 08:26:13;;;;;;;24.98;14.20;;;;;;;-5.80;100.00;102437.03;5052323;28;20063;-66
2022/12/18 08:28:39;;;;;;;32.42;14.02;;;;;;;-5.80;100.00;102442.16;5052674;28;20444;-65
2022/12/18 08:31:05;;;;;;;31.15;13.95;;;;;;;-5.81;100.00;102445.44;5053171;28;20036;-66
2022/12/18 08:33:30;;;;;;;19.80;11.40;;;;;;;-5.78;100.00;102440.69;5043271;28;20485;-66
2022/12/18 08:35:57;;;;;;;29.40;14.15;;;;;;;-5.76;100.00;102443.41;5054348;28;20492;-66
2022/12/18 08:38:23;;;;;;;27.30;13.70;;;;;;;-5.73;100.00;102456.53;5051326;28;20029;-67
2022/12/18 08:40:48;;;;;;;31.02;14.05;;;;;;;-5.71;100.00;102461.84;5043981;28;20037;-74
2022/12/18 08:45:57;;;;;;;28.33;13.55;;;;;;;-5.68;100.00;102486.16;5045363;28;20041;-65
2022/12/18 08:48:22;;;;;;;26.48;13.20;;;;;;;-5.62;100.00;102493.59;5052830;28;20415;-65
2022/12/18 08:50:58;;;;;;;24.88;12.20;;;;;;;-5.61;100.00;102483.50;5045946;28;20025;-66
2022/12/18 08:53:24;;;;;;;25.15;12.65;;;;;;;-5.58;100.00;102485.50;5053351;28;20059;-66
2022/12/18 08:55:50;;;;;;;24.13;12.23;;;;;;;-5.54;100.00;102472.25;5053290;28;20398;-66
2022/12/18 08:58:15;;;;;;;29.88;13.52;;;;;;;-5.51;100.00;102490.53;5049761;28;20111;-65
2022/12/18 09:00:40;;;;;;;30.67;13.60;;;;;;;-5.49;100.00;102496.75;5048904;28;20469;-66
2022/12/18 09:03:11;;;;;;;31.17;14.77;;;;;;;-5.51;100.00;102490.53;5048570;28;20060;-66
2022/12/18 09:05:38;;;;;;;31.05;13.30;;;;;;;-5.47;100.00;102484.97;5052446;28;20119;-66
2022/12/18 09:08:03;;;;;;;25.73;11.80;;;;;;;-5.46;100.00;102481.69;5049123;28;20025;-65
2022/12/18 09:10:28;;;;;;;25.88;11.63;;;;;;;-5.42;100.00;102488.97;5049334;28;20033;-65
2022/12/18 09:12:55;;;;;;;26.10;12.63;;;;;;;-5.39;100.00;102483.25;5048530;28;20079;-66
2022/12/18 09:15:21;;;;;;;29.05;14.02;;;;;;;-5.40;100.00;102477.97;5047735;28;20021;-66
2022/12/18 09:17:47;;;;;;;24.80;12.05;;;;;;;-5.42;100.00;102458.19;5038165;28;20033;-66
2022/12/18 09:20:13;;;;;;;26.92;12.70;;;;;;;-5.39;100.00;102447.34;5034374;28;20025;-66
2022/12/18 09:22:38;;;;;;;31.45;13.25;;;;;;;-5.36;100.00;102427.13;5037506;28;20030;-66
2022/12/18 09:25:07;;;;;;;31.13;14.45;;;;;;;-5.32;100.00;102428.38;5046592;28;20027;-65
2022/12/18 09:27:32;;;;;;;27.23;13.50;;;;;;;-5.27;100.00;102429.78;5053003;28;20041;-66
2022/12/18 09:29:57;;;;;;;28.67;13.63;;;;;;;-5.22;100.00;102436.31;5050367;28;20392;-66
2022/12/18 09:32:23;;;;;;;29.55;13.95;;;;;;;-5.20;100.00;102436.47;5045598;28;20532;-66
2022/12/18 09:34:48;;;;;;;32.38;13.75;;;;;;;-5.16;100.00;102444.63;5051403;28;20440;-65
2022/12/18 09:37:13;;;;;;;24.95;12.82;;;;;;;-5.12;100.00;102444.22;5052944;28;20024;-66
2022/12/18 09:39:39;;;;;;;28.55;12.95;;;;;;;-5.10;100.00;102434.09;5053565;28;20056;-64
2022/12/18 09:42:06;;;;;;;28.67;13.38;;;;;;;-5.04;100.00;102431.28;5039851;28;20103;-65
2022/12/18 09:44:43;;;;;;;28.92;12.70;;;;;;;-4.98;100.00;102429.34;5044651;28;20040;-66
2022/12/18 09:47:17;;;;;;;24.98;12.20;;;;;;;-4.95;100.00;102434.81;5046979;28;20480;-66
2022/12/18 09:49:46;;;;;;;25.58;13.43;;;;;;;-4.93;100.00;102446.16;5046798;28;20533;-72
2022/12/18 09:52:17;;;;;;;25.17;12.60;;;;;;;-4.91;100.00;102449.78;5047147;28;20025;-66
2022/12/18 09:54:48;;;;;;;29.23;12.45;;;;;;;-4.87;100.00;102438.19;5044812;28;20029;-66
2022/12/18 09:57:17;;;;;;;31.42;13.43;;;;;;;-4.83;100.00;102441.25;5050610;28;20071;-66
2022/12/18 09:59:56;;;;;;;33.33;12.73;;;;;;;-4.79;100.00;102430.53;5047162;28;20141;-65
2022/12/18 10:02:26;;;;;;;28.08;12.52;;;;;;;-4.76;100.00;102432.50;5050203;28;20026;-65
2022/12/18 10:05:05;;;;;;;22.73;10.60;;;;;;;-4.78;100.00;102432.34;5049537;28;20149;-65
2022/12/18 10:08:09;;;;;;;23.45;12.30;;;;;;;-4.74;100.00;102428.44;5048357;28;20013;-68
2022/12/18 10:10:52;;;;;;;27.75;12.05;;;;;;;-4.71;100.00;102432.97;5034339;28;20056;-68
2022/12/18 10:13:38;;;;;;;25.05;12.98;;;;;;;-4.70;100.00;102428.00;5044063;28;20104;-68
2022/12/18 10:16:08;;;;;;;27.58;12.65;;;;;;;-4.66;100.00;102416.41;5048299;28;20067;-68
2022/12/18 10:18:40;;;;;;;25.67;12.48;;;;;;;-4.67;100.00;102407.75;5046899;28;20017;-68
2022/12/18 10:21:15;;;;;;;27.05;13.02;;;;;;;-4.62;100.00;102414.28;5046782;28;20031;-67
2022/12/18 10:23:46;;;;;;;22.20;11.55;;;;;;;-4.57;100.00;102412.22;5047340;28;20021;-69
2022/12/18 10:26:12;;;;;;;23.98;12.05;;;;;;;-4.52;100.00;102407.53;5052005;28;20024;-68
2022/12/18 10:28:40;;;;;;;27.10;12.93;;;;;;;-4.48;100.00;102407.09;5051149;28;20020;-67
2022/12/18 10:31:17;;;;;;;24.80;11.70;;;;;;;-4.43;100.00;102396.53;5050393;28;20361;-68
2022/12/18 10:33:43;;;;;;;29.17;13.85;;;;;;;-4.42;100.00;102388.06;5043154;28;20036;-67
2022/12/18 10:36:09;;;;;;;22.20;12.25;;;;;;;-4.33;100.00;102382.94;5032949;28;20032;-65
2022/12/18 10:38:34;;;;;;;23.77;12.20;;;;;;;-4.31;100.00;102395.97;5033686;28;20029;-66
2022/12/18 10:41:18;;;;;;;24.48;12.02;;;;;;;-4.25;100.00;102391.44;5045495;28;20052;-66
2022/12/18 10:43:43;;;;;;;20.17;11.48;;;;;;;-4.21;100.00;102398.72;5046699;28;20111;-66
2022/12/18 10:46:09;;;;;;;22.52;11.88;;;;;;;-4.13;100.00;102386.63;5049933;28;20104;-66
2022/12/18 10:48:40;;;;;;;24.35;12.98;;;;;;;-4.08;100.00;102385.44;5048095;28;20024;-65
2022/12/18 10:51:07;;;;;;;26.33;12.77;;;;;;;-4.02;100.00;102387.72;5049561;28;20034;-67
2022/12/18 10:53:35;;;;;;;24.75;11.82;;;;;;;-4.01;100.00;102390.44;5063625;28;20044;-67
2022/12/18 10:56:04;;;;;;;20.10;11.95;;;;;;;-3.94;100.00;102385.13;5054891;28;20488;-67
2022/12/18 10:58:34;;;;;;;23.50;12.15;;;;;;;-3.94;100.00;102379.09;5047213;28;20025;-66
2022/12/18 11:01:17;;;;;;;21.50;11.57;;;;;;;-3.88;100.00;102382.25;5051488;28;20504;-66
2022/12/18 11:03:59;;;;;;;20.07;10.83;;;;;;;-3.86;100.00;102374.72;5040659;28;20022;-69
2022/12/18 11:06:25;;;;;;;19.13;11.05;;;;;;;-3.83;100.00;102378.50;5049452;28;20025;-68
2022/12/18 11:09:01;;;;;;;19.70;10.55;;;;;;;-3.79;100.00;102379.72;5035994;28;20483;-67
2022/12/18 11:11:27;;;;;;;20.60;10.65;;;;;;;-3.77;100.00;102384.25;5050692;28;20461;-68
2022/12/18 11:14:01;;;;;;;22.17;11.65;;;;;;;-3.71;100.00;102375.34;5047349;28;20044;-68